createdAt,value
2019-04-20T00:01:23.497Z,6.80
2019-04-20T00:03:48.452Z,5.40
2019-04-20T00:06:17.565Z,7.47
2019-04-20T00:08:47.487Z,6.70
2019-04-20T00:11:25.093Z,7.03
2019-04-20T00:13:57.232Z,5.40
2019-04-20T00:16:16.921Z,6.80
2019-04-20T00:18:50.302Z,5.97
2019-04-20T00:21:35.531Z,6.80
2019-04-20T00:24:15.760Z,6.00
2019-04-20T00:29:25.472Z,6.57
2019-04-20T00:31:52.281Z,6.23
2019-04-20T00:34:18.378Z,7.13
2019-04-20T00:36:41.084Z,5.63
2019-04-20T00:39:12.868Z,6.53
2019-04-20T00:41:44.076Z,6.80
2019-04-20T00:44:16.055Z,6.73
2019-04-20T00:46:53.443Z,6.00
2019-04-20T00:49:27.562Z,7.60
2019-04-20T00:52:10.736Z,6.90
2019-04-20T00:54:11.533Z,7.10
2019-04-20T00:56:41.345Z,6.97
2019-04-20T00:59:25.966Z,6.87
2019-04-20T01:02:00.187Z,6.80
2019-04-20T01:04:34.593Z,7.43
2019-04-20T01:07:07.280Z,7.63
2019-04-20T01:09:46.130Z,7.47
2019-04-20T01:12:20.528Z,7.47
2019-04-20T01:14:53.556Z,7.23
2019-04-20T01:17:15.928Z,6.83
2019-04-20T01:19:44.366Z,6.83
2019-04-20T01:22:18.494Z,7.40
2019-04-20T01:24:46.656Z,7.07
2019-04-20T01:27:27.423Z,6.67
2019-04-20T01:29:49.586Z,7.27
2019-04-20T01:32:24.432Z,7.57
2019-04-20T01:34:55.103Z,7.67
2019-04-20T01:37:26.192Z,7.80
2019-04-20T01:39:53.073Z,7.80
2019-04-20T01:42:15.120Z,7.73
2019-04-20T01:44:47.324Z,8.10
2019-04-20T01:47:14.960Z,7.60
2019-04-20T01:49:46.846Z,8.00
2019-04-20T01:52:20.034Z,7.00
2019-04-20T01:55:08.710Z,7.87
2019-04-20T01:57:45.434Z,7.63
2019-04-20T02:00:32.765Z,7.60
2019-04-20T02:03:15.354Z,6.27
2019-04-20T02:05:54.043Z,7.37
2019-04-20T02:08:19.804Z,8.03
2019-04-20T02:10:50.944Z,7.47
2019-04-20T02:13:15.369Z,8.77
2019-04-20T02:15:49.430Z,7.40
2019-04-20T02:18:26.998Z,7.93
2019-04-20T02:21:05.226Z,7.63
2019-04-20T02:23:28.209Z,7.33
2019-04-20T02:25:45.949Z,7.77
2019-04-20T02:28:33.140Z,7.73
2019-04-20T02:31:28.210Z,7.57
2019-04-20T02:33:47.477Z,8.40
2019-04-20T02:36:40.310Z,7.53
2019-04-20T02:41:44.552Z,7.67
2019-04-20T02:44:17.888Z,7.20
2019-04-20T02:49:25.574Z,7.07
2019-04-20T02:51:47.026Z,7.50
2019-04-20T02:54:15.216Z,8.10
2019-04-20T02:56:47.687Z,8.73
2019-04-20T02:59:44.629Z,7.27
2019-04-20T03:01:43.634Z,8.13
2019-04-20T03:03:56.019Z,7.63
2019-04-20T03:06:32.846Z,8.40
2019-04-20T03:09:17.694Z,7.53
2019-04-20T03:11:53.989Z,8.37
2019-04-20T03:14:09.478Z,7.40
2019-04-20T03:16:38.527Z,8.03
2019-04-20T03:19:09.395Z,9.00
2019-04-20T03:21:49.463Z,7.83
2019-04-20T03:24:20.787Z,9.03
2019-04-20T03:26:55.663Z,8.23
2019-04-20T03:29:51.094Z,8.80
2019-04-20T03:35:10.075Z,9.17
2019-04-20T03:37:34.107Z,8.30
2019-04-20T03:39:54.046Z,8.90
2019-04-20T03:42:08.555Z,8.67
2019-04-20T03:44:39.035Z,9.50
2019-04-20T03:47:11.773Z,9.57
2019-04-20T03:50:00.966Z,9.77
2019-04-20T03:52:31.353Z,8.87
2019-04-20T03:55:26.158Z,8.63
2019-04-20T03:58:03.409Z,9.40
2019-04-20T04:00:45.933Z,9.60
2019-04-20T04:03:38.715Z,9.60
2019-04-20T04:05:57.312Z,10.07
2019-04-20T04:08:23.525Z,9.50
2019-04-20T04:11:03.220Z,7.80
2019-04-20T04:13:16.840Z,9.13
2019-04-20T04:15:51.943Z,8.37
2019-04-20T04:18:25.395Z,9.47
2019-04-20T04:20:55.275Z,9.30
2019-04-20T04:23:35.609Z,9.47
2019-04-20T04:26:05.846Z,9.23
2019-04-20T04:28:31.241Z,9.70
2019-04-20T04:31:08.420Z,9.37
2019-04-20T04:33:52.187Z,8.50
2019-04-20T04:36:07.132Z,9.47
2019-04-20T04:38:42.395Z,9.60
2019-04-20T04:41:16.973Z,9.30
2019-04-20T04:43:37.148Z,10.13
2019-04-20T04:45:49.632Z,8.80
2019-04-20T04:48:25.314Z,9.07
2019-04-20T04:50:57.333Z,9.37
2019-04-20T04:53:30.265Z,8.27
2019-04-20T04:55:57.489Z,8.53
2019-04-20T04:58:19.620Z,8.67
2019-04-20T05:00:49.314Z,8.33
2019-04-20T05:03:33.886Z,7.73
2019-04-20T05:06:25.316Z,8.77
2019-04-20T05:08:41.765Z,7.90
2019-04-20T05:11:04.823Z,8.07
2019-04-20T05:13:41.900Z,8.73
2019-04-20T05:16:19.259Z,8.27
2019-04-20T05:18:57.873Z,8.10
2019-04-20T05:21:25.391Z,7.47
2019-04-20T05:24:07.605Z,7.57
2019-04-20T05:26:53.126Z,6.63
2019-04-20T05:29:08.430Z,7.13
2019-04-20T05:31:34.007Z,7.33
2019-04-20T05:34:20.550Z,7.60
2019-04-20T05:36:49.279Z,7.73
2019-04-20T05:39:26.606Z,7.83
2019-04-20T05:41:48.591Z,7.00
2019-04-20T05:44:19.321Z,7.80
2019-04-20T05:46:53.256Z,6.87
2019-04-20T05:49:25.829Z,7.33
2019-04-20T05:51:57.170Z,8.13
2019-04-20T05:54:29.715Z,7.27
2019-04-20T05:57:00.885Z,7.00
2019-04-20T05:59:23.365Z,7.10
2019-04-20T06:01:58.811Z,6.77
2019-04-20T06:04:44.677Z,7.10
2019-04-20T06:06:58.043Z,6.73
2019-04-20T06:09:28.326Z,6.93
2019-04-20T06:12:07.610Z,6.07
2019-04-20T06:14:39.377Z,6.53
2019-04-20T06:17:21.216Z,5.73
2019-04-20T06:19:44.194Z,7.10
2019-04-20T06:22:31.124Z,6.17
2019-04-20T06:25:23.593Z,6.00
2019-04-20T06:27:40.034Z,6.80
2019-04-20T06:30:04.290Z,5.60
2019-04-20T06:33:26.781Z,5.30
2019-04-20T06:36:06.034Z,5.60
2019-04-20T06:38:28.039Z,4.77
2019-04-20T06:40:55.613Z,6.73
2019-04-20T06:43:13.207Z,5.27
2019-04-20T06:45:51.161Z,5.40
2019-04-20T06:48:21.457Z,4.93
2019-04-20T06:50:44.409Z,4.90
2019-04-20T06:56:06.610Z,4.53
2019-04-20T07:01:05.656Z,5.13
2019-04-20T07:03:51.302Z,4.80
2019-04-20T07:06:22.886Z,5.10
2019-04-20T07:08:51.035Z,4.43
2019-04-20T07:11:11.124Z,4.57
2019-04-20T07:13:27.999Z,4.87
2019-04-20T07:16:13.509Z,4.73
2019-04-20T07:19:01.311Z,3.93
2019-04-20T07:24:48.661Z,4.10
2019-04-20T07:27:13.658Z,4.50
2019-04-20T07:29:46.099Z,4.10
2019-04-20T07:32:09.071Z,3.50
2019-04-20T07:34:38.770Z,4.13
2019-04-20T07:37:41.951Z,4.30
2019-04-20T07:39:52.413Z,3.47
2019-04-20T07:42:24.293Z,3.53
2019-04-20T07:44:48.796Z,3.53
2019-04-20T07:47:28.280Z,3.23
2019-04-20T07:49:45.862Z,3.23
2019-04-20T07:51:57.635Z,3.00
2019-04-20T07:55:03.400Z,3.47
2019-04-20T07:57:14.657Z,3.07
2019-04-20T07:59:37.380Z,3.60
2019-04-20T08:02:38.160Z,4.67
2019-04-20T08:05:05.756Z,3.10
2019-04-20T08:07:23.648Z,3.47
2019-04-20T08:09:55.486Z,3.80
2019-04-20T08:12:53.631Z,3.73
2019-04-20T08:15:24.036Z,3.23
2019-04-20T08:17:52.853Z,3.23
2019-04-20T08:20:17.322Z,3.23
2019-04-20T08:22:47.915Z,3.93
2019-04-20T08:25:12.555Z,4.03
2019-04-20T08:27:45.039Z,4.37
2019-04-20T08:30:34.277Z,3.80
2019-04-20T08:33:12.243Z,3.60
2019-04-20T08:35:47.882Z,4.27
2019-04-20T08:38:47.204Z,3.93
2019-04-20T08:40:43.639Z,4.37
2019-04-20T08:43:20.194Z,3.90
2019-04-20T08:45:46.640Z,3.67
2019-04-20T08:48:18.884Z,3.23
2019-04-20T08:50:46.392Z,3.10
2019-04-20T08:53:20.766Z,3.00
2019-04-20T08:55:40.319Z,3.10
2019-04-20T08:57:54.374Z,3.37
2019-04-20T09:00:30.863Z,3.20
2019-04-20T09:03:00.913Z,2.90
2019-04-20T09:05:34.766Z,2.33
2019-04-20T09:08:02.418Z,2.63
2019-04-20T09:10:42.593Z,2.50
2019-04-20T09:13:06.076Z,2.50
2019-04-20T09:15:25.326Z,3.23
2019-04-20T09:18:05.024Z,3.13
2019-04-20T09:20:42.093Z,3.13
2019-04-20T09:23:16.631Z,3.70
2019-04-20T09:26:07.470Z,3.23
2019-04-20T09:28:54.662Z,3.03
2019-04-20T09:31:31.073Z,3.40
2019-04-20T09:34:06.013Z,3.07
2019-04-20T09:36:40.541Z,3.13
2019-04-20T09:39:24.703Z,3.77
2019-04-20T09:42:13.276Z,3.73
2019-04-20T09:44:46.057Z,3.70
2019-04-20T09:47:13.995Z,3.77
2019-04-20T09:49:55.530Z,3.60
2019-04-20T09:52:28.007Z,3.70
2019-04-20T09:54:59.252Z,3.27
2019-04-20T09:57:33.406Z,3.60
2019-04-20T10:00:02.764Z,4.20
2019-04-20T10:02:23.202Z,3.83
2019-04-20T10:04:44.213Z,3.80
2019-04-20T10:07:17.964Z,3.50
2019-04-20T10:09:45.264Z,3.50
2019-04-20T10:12:13.692Z,3.50
2019-04-20T10:14:42.706Z,3.30
2019-04-20T10:17:11.863Z,2.80
2019-04-20T10:19:41.857Z,3.13
2019-04-20T10:22:10.926Z,3.10
2019-04-20T10:24:39.317Z,2.77
2019-04-20T10:27:08.346Z,3.00
2019-04-20T10:29:37.590Z,3.50
2019-04-20T10:32:10.233Z,3.80
2019-04-20T10:34:36.790Z,3.20
2019-04-20T10:37:24.339Z,3.50
2019-04-20T10:39:52.821Z,2.80
2019-04-20T10:42:21.285Z,2.07
2019-04-20T10:44:52.247Z,3.27
2019-04-20T10:47:21.071Z,2.20
2019-04-20T10:49:49.676Z,3.17
2019-04-20T10:52:18.120Z,3.27
2019-04-20T10:54:46.581Z,3.40
2019-04-20T10:57:15.542Z,2.83
2019-04-20T10:59:45.610Z,3.10
2019-04-20T11:02:14.199Z,3.27
2019-04-20T11:04:44.279Z,3.37
2019-04-20T11:07:12.956Z,3.40
2019-04-20T11:09:42.648Z,4.13
2019-04-20T11:12:12.466Z,4.20
2019-04-20T11:14:44.313Z,4.03
2019-04-20T11:17:12.257Z,4.60
2019-04-20T11:19:41.152Z,4.30
2019-04-20T11:22:10.378Z,3.77
2019-04-20T11:24:38.901Z,4.10
2019-04-20T11:27:07.915Z,3.93
2019-04-20T11:29:36.489Z,3.20
2019-04-20T11:32:05.329Z,3.57
2019-04-20T11:34:38.428Z,3.10
2019-04-20T11:37:04.504Z,2.60
2019-04-20T11:39:33.008Z,3.20
2019-04-20T11:42:01.620Z,3.40
2019-04-20T11:44:31.615Z,3.10
2019-04-20T11:47:00.890Z,3.60
2019-04-20T11:49:29.327Z,3.07
2019-04-20T11:51:57.871Z,2.80
2019-04-20T11:54:26.460Z,2.90
2019-04-20T11:56:55.486Z,2.93
2019-04-20T11:59:25.289Z,2.50
2019-04-20T12:02:03.912Z,3.17
2019-04-20T12:04:42.123Z,3.17
2019-04-20T12:07:04.639Z,3.20
2019-04-20T12:09:33.549Z,3.20
2019-04-20T12:12:15.613Z,3.10
2019-04-20T12:14:32.647Z,2.60
2019-04-20T12:17:01.803Z,2.87
2019-04-20T12:19:31.207Z,2.90
2019-04-20T12:22:00.006Z,2.70
2019-04-20T12:24:29.136Z,2.60
2019-04-20T12:26:58.675Z,2.50
2019-04-20T12:29:27.937Z,2.90
2019-04-20T12:31:59.126Z,2.90
2019-04-20T12:34:26.619Z,2.60
2019-04-20T12:36:55.547Z,2.20
2019-04-20T12:39:24.901Z,2.70
2019-04-20T12:41:58.381Z,2.83
2019-04-20T12:44:23.897Z,2.30
2019-04-20T12:46:53.731Z,2.03
2019-04-20T12:49:23.411Z,2.10
2019-04-20T12:51:57.362Z,2.10
2019-04-20T12:54:22.752Z,1.83
2019-04-20T12:56:52.946Z,2.00
2019-04-20T12:59:21.593Z,1.97
2019-04-20T13:01:51.342Z,2.57
2019-04-20T13:04:20.627Z,2.20
2019-04-20T13:06:51.952Z,2.43
2019-04-20T13:09:20.962Z,1.90
2019-04-20T13:12:04.573Z,2.47
2019-04-20T13:15:06.559Z,2.23
2019-04-20T13:17:35.040Z,2.10
2019-04-20T13:20:05.801Z,2.00
2019-04-20T13:22:34.942Z,2.00
2019-04-20T13:25:03.565Z,2.10
2019-04-20T13:27:32.861Z,2.20
2019-04-20T13:30:02.819Z,2.10
2019-04-20T13:32:31.914Z,1.80
2019-04-20T13:35:00.582Z,2.00
2019-04-20T13:37:29.045Z,1.60
2019-04-20T13:39:58.641Z,1.93
2019-04-20T13:42:29.852Z,1.90
2019-04-20T13:44:57.367Z,1.80
2019-04-20T13:47:28.165Z,1.90
2019-04-20T13:49:56.882Z,2.00
2019-04-20T13:52:26.549Z,1.90
2019-04-20T13:54:55.912Z,2.50
2019-04-20T13:57:31.599Z,2.50
2019-04-20T14:00:00.425Z,2.33
2019-04-20T14:02:42.874Z,3.07
2019-04-20T14:05:12.891Z,2.70
2019-04-20T14:07:41.775Z,2.77
2019-04-20T14:10:11.297Z,2.80
2019-04-20T14:12:54.784Z,2.70
2019-04-20T14:15:11.192Z,2.80
2019-04-20T14:17:40.089Z,1.97
2019-04-20T14:20:13.867Z,2.00
2019-04-20T14:22:41.114Z,2.20
2019-04-20T14:25:11.155Z,2.10
2019-04-20T14:27:40.278Z,2.20
2019-04-20T14:30:09.020Z,1.50
2019-04-20T14:32:38.794Z,1.80
2019-04-20T14:35:09.057Z,1.60
2019-04-20T14:37:37.629Z,1.73
2019-04-20T14:40:06.461Z,1.90
2019-04-20T14:42:42.246Z,1.70
2019-04-20T14:45:06.694Z,1.60
2019-04-20T14:47:36.139Z,1.33
2019-04-20T14:50:05.381Z,1.80
2019-04-20T14:52:33.879Z,1.70
2019-04-20T14:55:03.751Z,1.60
2019-04-20T14:57:32.292Z,1.70
2019-04-20T15:00:05.678Z,1.53
2019-04-20T15:02:34.264Z,1.63
2019-04-20T15:05:03.341Z,1.40
2019-04-20T15:07:33.001Z,1.77
2019-04-20T15:10:03.017Z,2.37
2019-04-20T15:12:43.282Z,2.10
2019-04-20T15:15:03.117Z,2.40
2019-04-20T15:17:37.599Z,2.27
2019-04-20T15:20:25.552Z,2.30
2019-04-20T15:22:57.405Z,1.70
2019-04-20T15:25:25.889Z,1.97
2019-04-20T15:27:54.671Z,1.57
2019-04-20T15:30:24.388Z,1.57
2019-04-20T15:32:52.850Z,2.60
2019-04-20T15:35:23.345Z,2.37
2019-04-20T15:37:52.969Z,2.40
2019-04-20T15:40:21.808Z,2.83
2019-04-20T15:42:59.058Z,1.90
2019-04-20T15:45:21.183Z,2.33
2019-04-20T15:47:50.163Z,2.20
2019-04-20T15:50:20.123Z,1.70
2019-04-20T15:52:52.827Z,2.23
2019-04-20T15:55:26.438Z,2.10
2019-04-20T15:57:50.475Z,2.30
2019-04-20T16:00:20.304Z,2.50
2019-04-20T16:02:53.692Z,2.43
2019-04-20T16:06:01.058Z,2.43
2019-04-20T16:08:32.483Z,2.60
2019-04-20T16:11:01.453Z,2.80
2019-04-20T16:13:37.507Z,2.77
2019-04-20T16:16:01.555Z,2.67
2019-04-20T16:18:30.835Z,2.73
2019-04-20T16:21:06.260Z,2.40
2019-04-20T16:23:32.487Z,3.00
2019-04-20T16:26:07.948Z,2.90
2019-04-20T16:28:37.511Z,2.90
2019-04-20T16:31:08.699Z,2.87
2019-04-20T16:33:36.693Z,3.63
2019-04-20T16:36:05.233Z,3.20
2019-04-20T16:38:35.093Z,3.67
2019-04-20T16:41:04.220Z,3.30
2019-04-20T16:43:40.500Z,2.50
2019-04-20T16:46:03.482Z,3.47
2019-04-20T16:48:31.918Z,3.60
2019-04-20T16:51:00.625Z,3.17
2019-04-20T16:53:29.288Z,3.30
2019-04-20T16:55:58.948Z,3.60
2019-04-20T16:58:28.087Z,4.07
2019-04-20T17:00:56.795Z,3.20
2019-04-20T17:03:39.903Z,4.23
2019-04-20T17:05:56.004Z,3.77
2019-04-20T17:08:24.999Z,3.83
2019-04-20T17:10:53.761Z,3.73
2019-04-20T17:13:33.644Z,3.70
2019-04-20T17:15:52.421Z,4.43
2019-04-20T17:18:21.273Z,4.30
2019-04-20T17:20:50.620Z,4.83
2019-04-20T17:23:19.397Z,4.00
2019-04-20T17:25:48.373Z,4.23
2019-04-20T17:28:42.738Z,4.37
2019-04-20T17:31:21.764Z,4.87
2019-04-20T17:34:04.691Z,5.20
2019-04-20T17:36:29.305Z,4.90
2019-04-20T17:38:59.471Z,4.33
2019-04-20T17:41:47.457Z,3.80
2019-04-20T17:44:16.988Z,4.53
2019-04-20T17:46:40.528Z,4.73
2019-04-20T17:49:14.889Z,5.07
2019-04-20T17:51:47.643Z,5.10
2019-04-20T17:54:22.299Z,5.07
2019-04-20T17:56:52.186Z,5.33
2019-04-20T17:59:22.225Z,4.73
2019-04-20T18:02:23.821Z,5.17
2019-04-20T18:05:28.466Z,6.07
2019-04-20T18:07:52.075Z,6.67
2019-04-20T18:10:22.650Z,6.43
2019-04-20T18:12:42.296Z,8.57
2019-04-20T18:15:22.989Z,7.03
2019-04-20T18:18:15.722Z,7.73
2019-04-20T18:20:40.906Z,9.47
2019-04-20T18:23:10.877Z,8.50
2019-04-20T18:26:07.298Z,9.97
2019-04-20T18:28:20.919Z,8.67
2019-04-20T18:30:57.547Z,7.90
2019-04-20T18:33:27.824Z,8.70
2019-04-20T18:35:54.048Z,9.37
2019-04-20T18:38:23.920Z,9.03
2019-04-20T18:41:00.114Z,10.40
2019-04-20T18:43:25.626Z,12.20
2019-04-20T18:46:10.982Z,13.37
2019-04-20T18:48:43.721Z,11.90
2019-04-20T18:50:54.820Z,12.83
2019-04-20T18:53:29.480Z,11.27
2019-04-20T18:55:57.039Z,13.13
2019-04-20T18:58:24.901Z,13.77
2019-04-20T19:00:54.249Z,13.17
2019-04-20T19:03:32.561Z,12.00
2019-04-20T19:05:53.910Z,15.27
2019-04-20T19:08:31.217Z,16.40
2019-04-20T19:10:57.897Z,16.03
2019-04-20T19:13:42.392Z,16.57
2019-04-20T19:16:29.977Z,17.37
2019-04-20T19:19:04.214Z,15.23
2019-04-20T19:21:21.512Z,18.53
2019-04-20T19:23:58.034Z,18.03
2019-04-20T19:26:21.888Z,17.33
2019-04-20T19:28:54.439Z,20.60
2019-04-20T19:31:39.724Z,19.50
2019-04-20T19:34:13.022Z,20.67
2019-04-20T19:36:31.670Z,18.53
2019-04-20T19:39:06.076Z,17.43
2019-04-20T19:41:32.095Z,16.73
2019-04-20T19:44:04.332Z,18.50
2019-04-20T19:46:50.645Z,17.13
2019-04-20T19:49:01.333Z,17.37
2019-04-20T19:51:47.972Z,18.90
2019-04-20T19:54:18.948Z,18.77
2019-04-20T19:56:42.477Z,17.87
2019-04-20T19:59:09.217Z,19.37
2019-04-20T20:01:24.130Z,15.70
2019-04-20T20:03:56.364Z,17.50
2019-04-20T20:06:29.229Z,16.70
2019-04-20T20:08:57.961Z,17.83
2019-04-20T20:11:29.463Z,18.90
2019-04-20T20:13:56.851Z,15.77
2019-04-20T20:16:33.606Z,19.03
2019-04-20T20:19:05.869Z,18.60
2019-04-20T20:21:40.571Z,18.50
2019-04-20T20:23:56.335Z,18.83
2019-04-20T20:26:33.450Z,17.27
2019-04-20T20:29:09.760Z,18.70
2019-04-20T20:31:43.324Z,20.60
2019-04-20T20:34:08.499Z,19.90
2019-04-20T20:36:39.473Z,18.40
2019-04-20T20:39:04.670Z,19.70
2019-04-20T20:41:31.673Z,20.27
2019-04-20T20:44:08.080Z,20.43
2019-04-20T20:46:34.896Z,21.77
2019-04-20T20:49:16.078Z,18.50
2019-04-20T20:51:50.074Z,18.47
2019-04-20T20:54:09.243Z,18.47
2019-04-20T20:56:34.133Z,21.17
2019-04-20T20:59:07.539Z,23.73
2019-04-20T21:01:42.497Z,20.37
2019-04-20T21:04:00.493Z,19.00
2019-04-20T21:06:29.022Z,20.37
2019-04-20T21:08:59.914Z,19.03
2019-04-20T21:11:32.289Z,21.90
2019-04-20T21:13:59.200Z,21.57
2019-04-20T21:16:31.882Z,21.77
2019-04-20T21:19:14.718Z,21.23
2019-04-20T21:21:42.502Z,21.10
2019-04-20T21:24:16.002Z,19.37
2019-04-20T21:26:44.125Z,20.73
2019-04-20T21:29:11.851Z,20.50
2019-04-20T21:31:43.392Z,21.30
2019-04-20T21:34:14.900Z,21.83
2019-04-20T21:36:41.020Z,19.57
2019-04-20T21:39:16.300Z,21.17
2019-04-20T21:41:47.676Z,19.40
2019-04-20T21:44:15.639Z,22.00
2019-04-20T21:46:46.681Z,21.57
2019-04-20T21:49:27.797Z,20.53
2019-04-20T21:51:49.340Z,22.13
2019-04-20T21:54:11.996Z,21.47
2019-04-20T21:56:49.834Z,21.93
2019-04-20T21:59:22.647Z,25.33
2019-04-20T22:01:56.335Z,23.33
2019-04-20T22:04:14.344Z,23.40
2019-04-20T22:06:44.496Z,24.90
2019-04-20T22:09:14.608Z,25.33
2019-04-20T22:11:44.187Z,22.57
2019-04-20T22:14:18.477Z,25.53
2019-04-20T22:16:49.191Z,21.33
2019-04-20T22:19:27.450Z,24.90
2019-04-20T22:21:53.158Z,24.47
2019-04-20T22:24:28.713Z,22.00
2019-04-20T22:26:54.992Z,28.37
2019-04-20T22:29:14.316Z,21.67
2019-04-20T22:31:46.154Z,20.93
2019-04-20T22:34:19.043Z,20.00
2019-04-20T22:36:48.448Z,22.77
2019-04-20T22:39:31.991Z,21.70
2019-04-20T22:42:03.417Z,26.73
2019-04-20T22:44:29.117Z,24.03
2019-04-20T22:46:58.508Z,22.27
2019-04-20T22:49:39.912Z,24.80
2019-04-20T22:52:05.872Z,21.57
2019-04-20T22:54:39.712Z,25.23
2019-04-20T22:57:08.531Z,22.77
2019-04-20T22:59:39.900Z,22.67
2019-04-20T23:02:01.123Z,21.47
2019-04-20T23:04:28.782Z,22.30
2019-04-20T23:06:58.985Z,21.77
2019-04-20T23:09:28.854Z,24.17
2019-04-20T23:12:06.070Z,24.07
2019-04-20T23:14:28.773Z,23.57
2019-04-20T23:16:57.535Z,23.33
2019-04-20T23:19:34.481Z,23.37
2019-04-20T23:22:02.586Z,23.93
2019-04-20T23:24:27.091Z,21.17
2019-04-20T23:26:55.546Z,24.17
2019-04-20T23:29:27.220Z,22.07
2019-04-20T23:31:59.345Z,25.53
2019-04-20T23:34:28.449Z,25.23
2019-04-20T23:36:54.912Z,23.90
2019-04-20T23:39:30.153Z,22.47
2019-04-20T23:41:58.606Z,22.07
2019-04-20T23:44:35.723Z,23.90
2019-04-20T23:47:27.801Z,21.53
2019-04-20T23:50:17.854Z,23.27
2019-04-20T23:52:49.486Z,21.20
2019-04-20T23:55:05.000Z,23.20
2019-04-20T23:57:31.637Z,24.00
